ΕΜΥ, Εθνική Μετεωρολογική Υπηρεσία - Δελτία Καιρού, Προγνώσεις

ΑΕΡΟΝΑΥΤΙΛΙΑ

GREEK AIRPORTS CODES

LGAV 231820Z 19014KT 9999 FEW018 SCT025 BKN070 14/08 Q1013 RMK Q1013.4 NOSIG=

EUROPEAN AIRPORTS CODES

LFPO 231830Z 32010KT 9999 BKN013 BKN018 03/01 Q0996 NOSIG=